De Panne, Belgium
Current Conditions -  °F | °C
As of 3:25 AM on Friday 21 Nov 2014 (Local Time) from EBFN Reporting Station
Haze Haze  
Wind Chill: 36°   Ceiling: 200
Heat Index: 41°   Visibility: 1.8mi
Dew Point: 41°   Wind: 7mph
Humidity: 100%   Direction: 110°ESE
Pressure: 30.24"   Gusts: NA
Location:  51.1°N, 2.59°E
Report Text: EBFN 210225Z 11006KT 3000 BR BKN002 05/05 Q1024 AMB
Loading
Personal Weather Stations






























Interactive Weather Map New forecast layout! Learn more

10-Day Weather Forecast

Advertisements
Track Severe Weather on mobile